Latest Weather Observations for Ouse

IDT60801

Issued at 7:11 am EDT Tuesday 6 December 2022 (issued every 10 minutes, with the page automatically refreshed every 10 minutes)

About weather observations | Map of weather stations | Latest weather observations for TAS | Other Formats
Station Details ID: 095048 Name: OUSE FIRE STATION Lat: -42.48 Lon: 146.71 Height: 90.0 m
Data from the previous 72 hours. | See also: Recent months at Ouse
Date/Time
EDT
Temp
°C
App
Temp
°C
Dew
Point
°C
Rel
Hum
%
Delta-T
°C
Wind Press
QNH
hPa
Press
MSL
hPa
Rain since
9am
mm
Dir  Spd
km/h
Gust
km/h
Spd
kts
Gust
kts
06/07:00am 11.4 8.0 3.9 60 3.4 ESE 11 15 6 8 1014.8 1014.7 0.0
06/06:30am 9.2 7.5 4.0 70 2.3 S 2 9 1 5 1014.7 1014.6 0.0
06/06:00am 8.5 6.3 5.4 81 1.4 SW 6 7 3 4 1014.6 1014.5 0.0
06/05:30am 9.1 6.5 4.1 71 2.2 SW 7 9 4 5 1014.4 1014.3 0.0
06/05:00am 9.3 6.8 3.7 68 2.4 SE 6 9 3 5 1014.3 1014.2 0.0
06/04:30am 9.1 6.6 3.7 69 2.4 ESE 6 9 3 5 1014.4 1014.3 0.0
06/04:00am 9.1 6.6 3.7 69 2.4 S 6 11 3 6 1014.5 1014.4 0.0
06/03:30am 8.5 7.2 4.3 75 1.8 CALM 0 6 0 3 1014.7 1014.6 0.0
06/03:00am 8.7 7.5 4.5 75 1.9 CALM 0 0 0 0 1014.9 1014.8 0.0
06/02:30am 8.8 7.5 4.0 72 2.1 CALM 0 2 0 1 1015.1 1015.0 0.0
06/02:00am 9.1 7.0 3.9 70 2.3 SSW 4 6 2 3 1015.3 1015.2 0.0
06/01:30am 8.7 7.4 4.3 74 1.9 CALM 0 0 0 0 1015.5 1015.4 0.0
06/01:00am 8.9 7.5 3.7 70 2.3 CALM 0 0 0 0 1015.8 1015.7 0.0
06/12:30am 8.9 6.7 3.5 69 2.3 S 4 7 2 4 1015.8 1015.7 0.0
06/12:00am 9.4 5.3 2.3 61 3.0 S 13 19 7 10 1016.2 1016.0 0.0
 
Date/Time
EDT
Temp
°C
App
Temp
°C
Dew
Point
°C
Rel
Hum
%
Delta-T
°C
Wind Press
QNH
hPa
Press
MSL
hPa
Rain since
9am
mm
Dir  Spd
km/h
Gust
km/h
Spd
kts
Gust
kts
05/11:30pm 9.6 6.2 2.0 59 3.2 S 9 13 5 7 1016.4 1016.2 0.0
05/11:00pm 9.5 5.9 2.8 63 2.9 SSW 11 13 6 7 1016.4 1016.2 0.0
05/10:30pm 9.1 6.3 3.3 67 2.5 S 7 7 4 4 1016.5 1016.3 0.0
05/10:00pm 9.1 6.5 3.1 66 2.6 SE 6 7 3 4 1016.5 1016.3 0.0
05/09:30pm 9.9 6.2 2.5 60 3.2 SSE 11 15 6 8 1016.2 1016.0 0.0
05/09:00pm 10.8 5.5 2.1 55 3.7 SSE 19 26 10 14 1015.8 1015.7 0.0
05/08:30pm 11.1 5.8 1.6 52 4.0 SSE 19 26 10 14 1015.4 1015.3 0.0
05/08:00pm 11.7 6.3 2.2 52 4.1 SSE 20 32 11 17 1015.0 1014.9 0.0
05/07:30pm 13.0 7.6 2.6 49 4.6 SSE 20 35 11 19 1014.5 1014.4 0.0
05/07:00pm 13.1 6.9 2.1 47 4.8 SE 24 39 13 21 1013.9 1013.8 0.0
05/06:30pm 12.9 6.8 2.5 49 4.6 SSE 24 35 13 19 1013.3 1013.2 0.0
05/06:00pm 14.2 8.3 3.9 50 4.7 SSE 24 35 13 19 1012.8 1012.7 0.0
05/05:30pm 14.0 8.6 4.3 52 4.5 SSE 22 33 12 18 1012.7 1012.6 0.0
05/05:00pm 14.1 9.5 5.7 57 4.0 SE 19 28 10 15 1012.5 1012.4 0.0
05/04:30pm 13.8 7.9 5.9 59 3.8 ESE 26 35 14 19 1012.5 1012.4 0.0
05/04:00pm 14.2 9.3 7.0 62 3.5 SE 22 39 12 21 1012.5 1012.4 0.0
05/03:30pm 13.3 9.1 7.5 68 2.8 SE 19 30 10 16 1012.3 1012.2 0.0
05/03:00pm 13.4 9.2 7.4 67 2.9 SE 19 32 10 17 1012.2 1012.1 0.0
05/02:30pm 14.6 9.1 7.4 62 3.6 SSE 26 39 14 21 1011.9 1011.8 0.0
05/02:00pm 14.6 10.1 6.9 60 3.8 SSE 20 33 11 18 1011.7 1011.6 0.0
05/01:30pm 13.9 9.5 7.2 64 3.3 SSE 20 32 11 17 1011.6 1011.5 0.0
05/01:00pm 14.6 9.8 7.2 61 3.7 SSE 22 39 12 21 1011.3 1011.2 0.0
05/12:30pm 14.7 8.8 7.3 61 3.7 SSE 28 41 15 22 1011.0 1010.9 0.0
05/12:00pm 14.4 9.6 7.5 63 3.4 SSE 22 39 12 21 1010.7 1010.6 0.0
05/11:30am 14.5 8.9 7.3 62 3.6 SSE 26 39 14 21 1010.4 1010.3 0.0
05/11:00am 14.3 8.4 7.6 64 3.3 SSE 28 44 15 24 1010.1 1010.0 0.0
05/10:53am 14.4 8.5 7.7 64 3.3 SSE 28 46 15 25 1010.0 1009.9 0.0
05/10:30am 14.3 9.3 8.0 66 3.1 SSE 24 43 13 23 1009.8 1009.7 0.0
05/10:00am 14.1 9.9 8.3 68 2.9 SSE 20 32 11 17 1009.5 1009.4 0.0
05/09:30am 14.1 9.9 8.3 68 2.9 SSE 20 32 11 17 1009.4 1009.3 0.0
05/09:00am 14.1 9.1 8.1 67 3.0 SSE 24 39 13 21 1009.0 1008.9 0.0
05/08:30am 14.3 8.6 8.3 67 3.0 SE 28 46 15 25 1008.4 1008.3 0.0
05/08:09am 14.6 8.9 8.3 66 3.2 SSE 28 46 15 25 1008.1 1008.0 0.0
05/08:00am 14.7 9.0 8.2 65 3.3 SSE 28 43 15 23 1007.9 1007.8 0.0
05/07:30am 14.9 11.2 9.5 70 2.8 SE 19 30 10 16 1007.2 1007.0 0.0
05/07:00am 14.9 11.0 9.5 70 2.8 SE 20 33 11 18 1006.7 1006.5 0.0
05/06:30am 14.3 13.2 10.7 79 1.9 S 7 11 4 6 1006.4 1006.2 0.0
05/06:00am 14.2 14.3 11.4 83 1.5 SE 2 9 1 5 1005.9 1005.7 0.0
05/05:30am 14.2 13.3 11.5 84 1.4 SSW 7 11 4 6 1005.5 1005.3 0.0
05/05:00am 14.4 12.8 11.4 82 1.6 S 11 15 6 8 1005.3 1005.1 0.0
05/04:30am 14.4 13.6 11.7 84 1.5 SSE 7 11 4 6 1005.2 1005.0 0.0
05/04:00am 14.4 13.7 11.9 85 1.4 ESE 7 11 4 6 1005.2 1005.0 0.0
05/03:30am 14.5 13.4 11.8 84 1.5 S 9 11 5 6 1005.3 1005.1 0.0
05/03:00am 14.6 13.8 11.7 83 1.6 SSE 7 9 4 5 1004.9 1004.7 0.0
05/02:30am 14.5 13.3 11.7 83 1.5 S 9 13 5 7 1005.3 1005.1 0.0
05/02:00am 14.6 14.8 11.9 84 1.5 SSE 2 9 1 5 1005.7 1005.5 0.0
05/01:30am 14.8 13.6 11.6 81 1.7 SSE 9 13 5 7 1005.3 1005.1 0.0
05/01:00am 14.8 13.3 11.8 82 1.6 SSE 11 17 6 9 1005.4 1005.2 0.0
05/12:30am 14.7 13.6 12.0 84 1.5 SSE 9 15 5 8 1006.1 1005.9 0.0
05/12:00am 14.7 13.2 12.0 84 1.5 SSE 11 17 6 9 1005.7 1005.5 0.0
 
Date/Time
EDT
Temp
°C
App
Temp
°C
Dew
Point
°C
Rel
Hum
%
Delta-T
°C
Wind Press
QNH
hPa
Press
MSL
hPa
Rain since
9am
mm
Dir  Spd
km/h
Gust
km/h
Spd
kts
Gust
kts
04/11:30pm 14.8 12.9 11.9 83 1.6 SSE 13 17 7 9 1006.1 1005.9 0.0
04/11:00pm 15.0 13.5 12.0 82 1.6 SSE 11 15 6 8 1006.6 1006.4 0.0
04/10:30pm 15.1 13.2 11.9 81 1.7 SSE 13 17 7 9 1006.5 1006.3 0.0
04/10:00pm 15.3 13.9 12.1 81 1.8 SSE 11 15 6 8 1006.9 1006.7 0.0
04/09:30pm 15.3 14.3 12.2 82 1.7 SE 9 15 5 8 1006.5 1006.3 0.0
04/09:00pm 15.9 14.5 12.1 78 2.1 SSE 11 22 6 12 1006.3 1006.1 0.0
04/08:30pm 16.3 14.5 12.1 76 2.3 SSE 13 24 7 13 1006.5 1006.3 0.0
04/08:00pm 16.6 14.8 12.0 74 2.5 SE 13 22 7 12 1006.9 1006.7 0.0
04/07:30pm 17.2 16.1 12.1 72 2.8 SSE 9 17 5 9 1007.1 1006.9 0.0
04/07:00pm 18.0 15.9 12.5 70 3.1 SSE 15 22 8 12 1006.7 1006.5 0.0
04/06:30pm 18.6 16.0 12.1 66 3.6 E 17 30 9 16 1006.7 1006.5 0.0
04/06:00pm 19.7 16.9 12.7 64 4.0 ESE 19 30 10 16 1006.8 1006.6 0.0
04/05:30pm 20.6 17.6 12.6 60 4.5 ESE 20 32 11 17 1006.9 1006.7 0.0
04/05:00pm 21.8 18.8 11.8 53 5.6 SE 19 28 10 15 1007.0 1006.8 0.0
04/04:30pm 22.4 19.8 12.1 52 5.8 SE 17 26 9 14 1007.1 1006.9 0.0
04/04:00pm 23.1 20.0 10.2 44 7.1 SSE 17 26 9 14 1007.2 1007.0 0.0
04/03:30pm 22.7 20.4 11.7 49 6.2 SSE 15 22 8 12 1007.4 1007.2 0.0
04/03:00pm 23.2 20.2 10.6 45 7.0 SSE 17 24 9 13 1007.8 1007.7 0.0
04/02:30pm 22.8 20.6 10.9 47 6.6 SSE 13 19 7 10 1008.0 1007.9 0.0
04/02:00pm 22.5 19.1 5.9 34 8.4 SE 13 17 7 9 1008.8 1008.7 0.0
04/01:30pm 22.5 19.6 6.7 36 8.1 SE 11 15 6 8 1009.2 1009.1 0.0
04/01:00pm 22.0 19.8 7.8 40 7.4 SSE 9 15 5 8 1009.7 1009.6 0.0
04/12:30pm 21.7 19.7 10.2 48 6.3 SSE 11 15 6 8 1010.0 1009.9 0.0
04/12:00pm 21.0 19.0 10.2 50 5.9 SSE 11 17 6 9 1010.3 1010.2 0.0
04/11:30am 20.1 18.9 10.2 53 5.4 S 7 11 4 6 1011.1 1011.0 0.0
04/11:00am 18.3 16.8 10.4 60 4.3 SE 9 15 5 8 1011.4 1011.3 0.0
04/10:30am 16.9 15.7 10.3 65 3.5 S 7 11 4 6 1012.1 1012.0 0.0
04/10:00am 16.2 15.0 11.6 74 2.5 S 9 15 5 8 1012.4 1012.3 0.0
04/09:30am 14.2 12.5 11.2 82 1.6 SSE 11 15 6 8 1012.8 1012.7 0.0
04/09:00am 13.0 12.1 10.7 86 1.2 ESE 6 9 3 5 1013.2 1013.1 0.0
04/08:30am 12.0 11.0 10.4 90 0.8 NE 6 7 3 4 1013.2 1013.1 0.0
04/08:00am 11.4 10.3 10.1 92 0.7 N 6 9 3 5 1013.1 1013.0 0.0
04/07:30am 10.2 8.9 9.1 93 0.5 NW 6 9 3 5 1013.0 1012.9 0.0
04/07:00am 8.6 6.8 7.8 95 0.4 NNW 7 9 4 5 1013.1 1013.0 0.0
04/06:30am 7.6 5.7 6.9 95 0.3 NW 6 9 3 5 1013.0 1012.9 0.0
04/06:00am 7.0 4.9 6.7 98 0.1 SSW 7 9 4 5 1012.9 1012.8 0.0
04/05:30am 5.6 4.5 5.2 97 0.2 CALM 0 2 0 1 1012.6 1012.5 0.0
04/05:00am 5.4 4.2 4.7 95 0.3 CALM 0 0 0 0 1012.3 1012.2 0.0
04/04:30am 5.9 4.8 5.3 96 0.3 CALM 0 0 0 0 1012.1 1012.0 0.0
04/04:00am 6.0 4.9 5.3 95 0.3 CALM 0 0 0 0 1012.2 1012.1 0.0
04/03:30am 6.3 5.3 5.6 95 0.3 CALM 0 6 0 3 1012.3 1012.2 0.0
04/03:00am 6.9 4.7 6.2 95 0.3 S 7 9 4 5 1012.7 1012.6 0.0
04/02:30am 7.3 6.5 6.4 94 0.4 CALM 0 0 0 0 1013.1 1013.0 0.0
04/02:00am 7.7 6.9 6.6 93 0.5 CALM 0 0 0 0 1013.2 1013.1 0.0
04/01:30am 8.3 7.2 7.1 92 0.6 S 2 7 1 4 1013.5 1013.4 0.0
04/01:00am 9.0 8.4 7.6 91 0.7 CALM 0 0 0 0 1013.5 1013.4 0.0
04/12:30am 9.9 9.4 8.0 88 0.9 CALM 0 0 0 0 1013.6 1013.5 0.0
04/12:00am 11.0 10.8 8.9 87 1.0 CALM 0 0 0 0 1013.7 1013.6 0.0
 
Date/Time
EDT
Temp
°C
App
Temp
°C
Dew
Point
°C
Rel
Hum
%
Delta-T
°C
Wind Press
QNH
hPa
Press
MSL
hPa
Rain since
9am
mm
Dir  Spd
km/h
Gust
km/h
Spd
kts
Gust
kts
03/11:30pm 11.7 11.2 9.3 85 1.2 S 2 7 1 4 1013.6 1013.5 0.0
03/11:00pm 12.8 11.3 9.3 79 1.8 S 7 11 4 6 1013.4 1013.3 0.0
03/10:30pm 14.2 12.7 9.0 71 2.7 S 7 9 4 5 1013.3 1013.2 0.0
03/10:00pm 15.3 12.6 9.0 66 3.2 S 13 19 7 10 1013.0 1012.9 0.0
03/09:30pm 16.7 13.6 8.9 60 4.0 S 15 19 8 10 1012.4 1012.3 0.0
03/09:00pm 19.1 16.6 8.1 49 5.7 SSE 11 17 6 9 1011.9 1011.8 0.0
03/08:30pm 21.1 16.6 4.2 33 8.2 SSW 17 22 9 12 1011.2 1011.1 0.0
03/08:00pm 23.0 18.4 3.5 28 9.5 SW 17 24 9 13 1010.8 1010.7 0.0
03/07:30pm 25.3 20.8 2.1 22 11.2 WSW 15 20 8 11 1010.3 1010.2 0.0
03/07:00pm 26.9 22.8 -0.2 17 12.7 W 11 19 6 10 1010.2 1010.1 0.0
03/06:30pm 27.6 22.8 0.4 17 12.9 W 15 22 8 12 1010.0 1009.9 0.0
03/06:00pm 28.3 23.2 0.9 17 13.2 WSW 17 30 9 16 1010.0 1009.9 0.0
03/05:30pm 28.3 23.6 3.2 20 12.6 W 17 28 9 15 1010.0 1009.9 0.0
03/05:00pm 28.7 23.0 2.8 19 12.9 SW 22 30 12 16 1010.0 1009.9 0.0
03/04:30pm 28.6 23.0 1.2 17 13.3 WSW 20 35 11 19 1010.1 1010.0 0.0
03/04:00pm 28.9 23.5 1.4 17 13.4 SSW 19 26 10 14 1010.4 1010.3 0.0
03/03:30pm 28.8 24.3 4.3 21 12.6 SW 17 28 9 15 1010.6 1010.5 0.0
03/03:00pm 28.7 24.3 0.4 16 13.5 WSW 13 20 7 11 1010.9 1010.8 0.0
03/02:30pm 28.6 23.5 4.2 21 12.5 W 20 30 11 16 1011.2 1011.1 0.0
03/02:00pm 28.4 23.9 4.0 21 12.4 WNW 17 26 9 14 1011.3 1011.2 0.0
03/01:30pm 27.5 24.8 5.7 25 11.4 S 9 15 5 8 1011.7 1011.6 0.0
03/01:00pm 27.3 23.7 5.0 24 11.5 W 13 20 7 11 1011.9 1011.8 0.0
03/12:30pm 26.1 23.3 5.1 26 10.7 NNE 9 20 5 11 1012.1 1012.0 0.0
03/12:00pm 25.1 22.5 6.3 30 9.8 N 9 19 5 10 1012.5 1012.4 0.0
03/11:30am 24.1 20.7 5.9 31 9.3 NW 13 22 7 12 1012.9 1012.8 0.0
03/11:00am 23.3 20.0 6.6 34 8.6 W 13 24 7 13 1013.3 1013.2 0.0
03/10:30am 21.3 19.8 8.6 44 6.7 ENE 6 11 3 6 1013.6 1013.5 0.0
03/10:00am 20.2 18.8 8.8 48 6.0 E 6 9 3 5 1014.2 1014.1 0.0
03/09:30am 18.1 16.3 8.1 52 5.1 NNE 7 11 4 6 1014.7 1014.6 0.0
03/09:00am 15.9 15.6 10.0 68 3.1 ESE 2 9 1 5 1015.1 1015.0 0.0
03/08:30am 13.3 12.9 9.7 79 1.9 ESE 2 6 1 3 1015.5 1015.4 0.0
03/08:00am 11.8 11.3 9.2 84 1.3 N 2 6 1 3 1015.7 1015.6 0.0
03/07:30am 9.7 9.4 8.5 92 0.6 CALM 0 0 0 0 1015.7 1015.6 0.0

Other formats

Comma delimited format used in spreadsheet applications
http://www.bom.gov.au/fwo/IDT60801/IDT60801.94957.axf

JavaScript Object Notation format (JSON) in row-major order
http://www.bom.gov.au/fwo/IDT60801/IDT60801.94957.json

Data quality

Most of these data are generated automatically and are frequently updated. Quality checks on data are not normally performed. It is possible for incorrect values to appear. Refer to information at About Latest Weather Observations and please check the disclaimer before using these data.